Etusivu
METAR-TAF:

METAR-TAF

Lentoasemat :

Berens Riverin lentoasema

Berensjoki, Manitoba, Kanada

Leveyspiiri: 52-21N, Pituuspiiri: 097-02W, korkeus merenpinnasta: 222 m

Tämänhetkinen sää

Tämä raportti tehtiin 8 tuntia ja 58 minuuttia sitten, kello 22.00 UTC
Tuuli 6 kn lännestä/luoteesta
Lämpötila -14°C
Kosteus 85%
Ilmanpaine 1021 hPa
Näkyvyys: 16.1 km
Pilvistä 800 ft:n korkeudessa
heikkoa lumisadetta

METAR: CYBV 272200Z 30006KT 10SM -SN OVC008 M14/M16 A3015 RMK SC8 SNW CVR/TRACE LOOSE/LAST STFD OBS/NEXT 281300UTC SLP231

Aika: 00:58 (06:58 UTC)


TAF: puuttuu

Säähavainnot ja -ennusteet yli 4000 lentoasemalta (METAR- ja TAF-raportit).

Käytössä olevat sääasemat on merkitty karttaan keltaisilla ja punaisilla pisteillä.

Aseta hiiri pisteen päälle nähdäksesi sääaseman nimen.

Klikkaa sitten nähdäksesi säähavainnot ja -ennusteet.

Kartan vaihtaminen: klikkaa mustalla rastilla varustettuja vihreitä pisteitä, niin voit zoomata sisään; viivalla varustettua vihreää pistettä, niin voit zoomata ulos tai vihreitä nuolia, niin pääset viereisille kartoille.


METAR-TAF: